Flight Track Log - Related Links

Times and Time Zones

All times are in EDT time to prevent confusion due to time zone crossing. See the N6GD flight status page for this flight to view local times or setup timezone preferences in your user account.

Time Position Orientation Groundspeed Altitude Reporting Facility
EDT Latitude Longitude Course Direction KTS MPH feet Rate Location/Type
Wed 12:07:50 AM 26.0853 -80.0506 83° East 230 265 4,300  Level Miami Center
Wed 12:08:03 AM 26.0864 -80.0461 74° East 208 239 4,400 2,137 Climbing Miami Center
Wed 12:09:03 AM 26.1461 -80.0608 348° North 259 298 6,900 2,331 Climbing Miami Center
Wed 12:10:04 AM 26.1886 -80.1300 304° West 272 313 9,100 2,136 Climbing Miami Center
Wed 12:11:01 AM 26.2339 -80.2050 304° West 295 339 11,100 2,237 Climbing Miami Center
Wed 12:12:02 AM 26.2931 -80.2975 306° West 317 365 13,500 1,967 Climbing Miami Center
Wed 12:13:03 AM 26.3508 -80.3808 308° West 339 390 15,100 1,289 Climbing Miami Center
Wed 12:14:03 AM 26.4122 -80.4689 308° West 360 414 16,100 446 Climbing Miami Center
Wed 12:15:04 AM 26.4792 -80.5653 308° West 393 452 16,000 -49 Descending Miami Center
Wed 12:16:06 AM 26.5503 -80.6689 308° West 392 451 16,000  Level Miami Center
Wed 12:17:05 AM 26.6161 -80.7644 308° West 396 456 16,000  Level Miami Center
Wed 12:18:06 AM 26.6808 -80.8597 307° West 397 457 16,000  Level Miami Center
Wed 12:19:07 AM 26.7514 -80.9617 308° West 396 456 16,000  Level Miami Center
Wed 12:20:07 AM 26.8197 -81.0619 307° West 396 456 16,000  Level Miami Center
Wed 12:21:07 AM 26.8853 -81.1597 307° West 396 456 16,000  Level Miami Center
Wed 12:22:07 AM 26.9511 -81.2553 308° West 396 456 16,000  Level Miami Center
Wed 12:23:07 AM 27.0175 -81.3533 307° West 396 456 16,000 -350 Level Miami Center
Wed 12:24:07 AM 27.0883 -81.4572 307° West 400 460 15,300 -878 Descending Miami Center
Wed 12:25:10 AM 27.1550 -81.5561 307° West 398 458 14,200 -1,100 Descending Miami Center
Wed 12:26:07 AM 27.2192 -81.6506 307° West 386 444 13,100 -966 Descending Miami Center
Wed 12:27:08 AM 27.2811 -81.7422 307° West 372 428 12,300 -726 Descending Miami Center
Wed 12:28:11 AM 27.3417 -81.8336 307° West 365 420 11,600 -700 Descending Miami Center
Wed 12:29:08 AM 27.4056 -81.9283 307° West 374 430 10,900 -763 Descending Miami Center
Wed 12:30:09 AM 27.4683 -82.0217 307° West 374 430 10,100 -443 Descending Miami Center
Wed 12:31:10 AM 27.5292 -82.1128 307° West 360 414 10,000 -49 Descending Miami Center
Wed 12:32:12 AM 27.5761 -82.1828 307° West 348 400 10,000 -393 Level Miami Center
Wed 12:33:12 AM 27.6267 -82.2614 306° West 302 348 9,200 -1,576 Descending Miami Center
Wed 12:33:51 AM 27.6667 -82.3333 302° West 268 308 7,400 -2,303 Descending Tampa TRACON
Wed 12:34:51 AM 27.7000 -82.4000 299° West 261 300 5,400 -1,900 Descending Tampa TRACON
Wed 12:35:51 AM 27.7333 -82.4667 299° West 246 283 3,600 -1,350 Descending Tampa TRACON
Wed 12:36:51 AM 27.7500 -82.5333 286° West 238 274 2,700 -500 Descending Tampa TRACON
Wed 12:37:51 AM 27.7500 -82.6167 270° West 222 255 2,600 -100 Descending Tampa TRACON

Login

Don't have an account? Register now (free) for customized features, flight alerts, and more!